Time;durP1;ratioP1;P1;durP2;ratioP2;P2;SDS_P1;SDS_P2;PMS_P1;PMS_P2;Temp;Humidity;BMP_temperature;BMP_pressure;BME280_temperature;BME280_humidity;BME280_pressure;Samples;Min_cycle;Max_cycle;Signal;HPM_P1;HPM_P2
2022/04/10 00:01:32;;;;;;;1.80;0.60;;;17.20;60.90;;;;;;10455675;28;20104;-54
2022/04/10 00:06:33;;;;;;;1.60;0.60;;;17.20;60.80;;;;;;10472202;28;20135;-53
2022/04/10 00:11:33;;;;;;;1.13;0.60;;;17.20;60.80;;;;;;10456041;28;20588;-54
2022/04/10 00:16:34;;;;;;;0.93;0.60;;;17.20;60.60;;;;;;10456714;28;20116;-53
2022/04/10 00:21:35;;;;;;;1.23;0.52;;;17.20;60.60;;;;;;10455286;28;20127;-54
2022/04/10 00:26:35;;;;;;;0.60;0.40;;;17.10;60.50;;;;;;10455985;28;20103;-55
2022/04/10 00:31:36;;;;;;;1.15;0.50;;;17.20;60.30;;;;;;10454912;28;20067;-52
2022/04/10 00:36:37;;;;;;;1.92;0.95;;;17.20;60.30;;;;;;10462586;28;20671;-54
2022/04/10 00:41:37;;;;;;;0.88;0.47;;;17.20;60.10;;;;;;10455242;28;20029;-55
2022/04/10 00:46:39;;;;;;;1.00;0.57;;;17.20;60.20;;;;;;10455462;28;20033;-51
2022/04/10 00:51:46;;;;;;;0.82;0.50;;;17.20;60.10;;;;;;10455288;28;20029;-54
2022/04/10 00:56:47;;;;;;;1.25;0.50;;;17.20;60.00;;;;;;10453935;28;20044;-54
2022/04/10 01:01:48;;;;;;;1.65;0.70;;;17.10;60.20;;;;;;10454165;28;20029;-53
2022/04/10 01:06:50;;;;;;;1.90;0.60;;;17.20;60.00;;;;;;10454644;28;20028;-50
2022/04/10 01:11:55;;;;;;;1.70;0.68;;;17.10;60.00;;;;;;10453047;28;20116;-55
2022/04/10 01:16:56;;;;;;;1.25;0.65;;;17.10;60.00;;;;;;10453153;28;20025;-52
2022/04/10 01:22:07;;;;;;;0.93;0.50;;;17.20;59.90;;;;;;10452285;28;20032;-55
2022/04/10 01:27:07;;;;;;;1.13;0.60;;;17.20;59.90;;;;;;10454053;28;20055;-52
2022/04/10 01:32:08;;;;;;;2.00;0.93;;;17.10;60.00;;;;;;10453698;28;20477;-54
2022/04/10 01:37:10;;;;;;;1.67;0.73;;;17.10;59.90;;;;;;10462621;28;20033;-53
2022/04/10 01:42:11;;;;;;;1.98;0.45;;;17.10;59.90;;;;;;10453257;28;20032;-53
2022/04/10 01:47:12;;;;;;;6.68;0.63;;;17.20;59.60;;;;;;10453790;28;20055;-52
2022/04/10 01:52:12;;;;;;;1.17;0.63;;;17.20;59.70;;;;;;10451648;28;20114;-53
2022/04/10 01:57:13;;;;;;;0.70;0.40;;;17.10;59.70;;;;;;10452194;28;20061;-52
2022/04/10 02:02:14;;;;;;;0.88;0.38;;;17.20;59.70;;;;;;10453366;28;20068;-53
2022/04/10 02:07:15;;;;;;;0.85;0.50;;;17.10;59.60;;;;;;10448585;28;20037;-55
2022/04/10 02:12:16;;;;;;;0.85;0.40;;;17.20;59.60;;;;;;10453143;28;20029;-49
2022/04/10 02:17:16;;;;;;;0.95;0.65;;;17.20;59.50;;;;;;10452942;28;20048;-53
2022/04/10 02:22:17;;;;;;;0.98;0.50;;;17.20;59.30;;;;;;10452688;28;20516;-54
2022/04/10 02:27:18;;;;;;;1.48;0.75;;;17.20;59.40;;;;;;10452585;28;20056;-53
2022/04/10 02:32:18;;;;;;;1.00;0.60;;;17.20;59.30;;;;;;10452348;28;20474;-52
2022/04/10 02:37:19;;;;;;;0.95;0.60;;;17.10;59.40;;;;;;10462726;28;20049;-54
2022/04/10 02:42:20;;;;;;;2.15;0.75;;;17.10;59.40;;;;;;10452067;28;20064;-53
2022/04/10 02:47:21;;;;;;;1.63;0.88;;;17.10;59.30;;;;;;10452017;28;20203;-50
2022/04/10 02:52:22;;;;;;;1.63;1.00;;;17.10;59.70;;;;;;10453655;28;20044;-55
2022/04/10 02:57:22;;;;;;;0.82;0.50;;;17.20;59.00;;;;;;10459741;28;20052;-54
2022/04/10 03:02:23;;;;;;;1.73;0.50;;;17.20;58.90;;;;;;10459534;28;20044;-53
2022/04/10 03:07:24;;;;;;;2.00;0.47;;;17.20;58.90;;;;;;10458064;28;20492;-53
2022/04/10 03:12:24;;;;;;;2.10;0.70;;;17.20;58.90;;;;;;10458878;28;20072;-52
2022/04/10 03:17:25;;;;;;;1.23;0.50;;;17.20;58.90;;;;;;10457443;28;20025;-53
2022/04/10 03:22:26;;;;;;;1.27;0.50;;;17.20;58.90;;;;;;10458596;28;20025;-54
2022/04/10 03:27:26;;;;;;;0.82;0.50;;;17.20;58.90;;;;;;10458258;28;20118;-53
2022/04/10 03:32:27;;;;;;;1.17;0.60;;;17.10;58.80;;;;;;10457891;28;20111;-55
2022/04/10 03:37:28;;;;;;;1.30;0.50;;;17.20;58.90;;;;;;10468255;28;20120;-52
2022/04/10 03:42:28;;;;;;;1.10;0.43;;;17.20;58.70;;;;;;10457858;28;20052;-52
2022/04/10 03:47:29;;;;;;;1.90;0.40;;;17.20;58.50;;;;;;10457439;28;20044;-54
2022/04/10 03:52:30;;;;;;;1.90;0.68;;;17.20;58.50;;;;;;10457169;28;20072;-54
2022/04/10 03:57:31;;;;;;;1.23;0.45;;;17.20;58.40;;;;;;10457232;28;20382;-53
2022/04/10 04:02:32;;;;;;;2.33;0.73;;;17.20;58.30;;;;;;10455372;28;20036;-54
2022/04/10 04:07:32;;;;;;;0.98;0.52;;;17.20;58.30;;;;;;10456980;28;20100;-53
2022/04/10 04:12:37;;;;;;;1.00;0.45;;;17.20;58.20;;;;;;10456464;28;20485;-52
2022/04/10 04:17:38;;;;;;;0.82;0.65;;;17.20;58.80;;;;;;10456074;28;20039;-53
2022/04/10 04:22:39;;;;;;;0.85;0.47;;;17.20;58.00;;;;;;10454545;28;20068;-54
2022/04/10 04:27:40;;;;;;;1.20;0.40;;;17.20;58.00;;;;;;10455649;28;20500;-52
2022/04/10 04:32:41;;;;;;;0.93;0.40;;;17.30;57.70;;;;;;10471074;28;20028;-51
2022/04/10 04:37:41;;;;;;;1.67;0.55;;;17.40;57.50;;;;;;10465491;28;20025;-49
2022/04/10 04:42:42;;;;;;;2.25;0.70;;;17.30;57.40;;;;;;10454664;28;20076;-50
2022/04/10 04:47:43;;;;;;;0.82;0.50;;;17.40;57.70;;;;;;10452099;28;20041;-51
2022/04/10 04:52:44;;;;;;;1.98;0.65;;;17.30;57.40;;;;;;10453052;28;20092;-51
2022/04/10 04:57:45;;;;;;;1.88;0.43;;;17.30;57.30;;;;;;10448957;28;20119;-52
2022/04/10 05:02:45;;;;;;;2.58;0.68;;;17.30;57.50;;;;;;10454231;28;20120;-54
2022/04/10 05:07:46;;;;;;;4.72;0.90;;;17.30;57.90;;;;;;10454665;28;20090;-50
2022/04/10 05:12:47;;;;;;;8.10;0.98;;;17.40;58.60;;;;;;10454068;28;20040;-48
2022/04/10 05:17:47;;;;;;;6.22;0.90;;;17.40;60.40;;;;;;10452957;28;20571;-48
2022/04/10 05:22:48;;;;;;;3.22;0.65;;;17.30;60.20;;;;;;10453267;28;20079;-49
2022/04/10 05:27:49;;;;;;;3.20;0.77;;;17.40;59.80;;;;;;10450311;28;20068;-51
2022/04/10 05:32:50;;;;;;;4.82;0.90;;;17.30;59.60;;;;;;10449900;28;20132;-53
2022/04/10 05:37:50;;;;;;;11.00;1.30;;;17.30;60.40;;;;;;10450494;28;20104;-53
2022/04/10 05:42:51;;;;;;;17.45;2.55;;;17.20;60.50;;;;;;10426080;28;20469;-48
2022/04/10 05:47:52;;;;;;;17.42;2.85;;;17.20;61.30;;;;;;10449753;28;20044;-53
2022/04/10 05:52:53;;;;;;;19.15;1.90;;;17.00;61.10;;;;;;10449690;28;20029;-54
2022/04/10 05:57:54;;;;;;;13.43;1.48;;;17.00;60.80;;;;;;10442098;28;20033;-51
2022/04/10 06:02:55;;;;;;;10.73;1.42;;;17.00;60.50;;;;;;10452763;28;20110;-49
2022/04/10 06:07:56;;;;;;;13.35;1.70;;;17.00;60.80;;;;;;10449120;28;20036;-49
2022/04/10 06:13:10;;;;;;;14.68;1.60;;;17.00;62.10;;;;;;10451987;28;20104;-51
2022/04/10 06:18:11;;;;;;;15.90;1.67;;;17.00;60.60;;;;;;10449822;28;20377;-53
2022/04/10 06:23:12;;;;;;;12.63;1.92;;;17.00;60.70;;;;;;10452307;28;20025;-52
2022/04/10 06:28:13;;;;;;;9.77;1.25;;;16.90;60.70;;;;;;10455722;28;20056;-49
2022/04/10 06:33:14;;;;;;;8.20;1.35;;;17.10;60.60;;;;;;10457856;28;20083;-50
2022/04/10 06:38:14;;;;;;;8.32;1.80;;;17.20;60.40;;;;;;10460548;28;20068;-49
2022/04/10 06:43:16;;;;;;;9.88;2.30;;;17.20;60.80;;;;;;10460551;28;20068;-49
2022/04/10 06:48:16;;;;;;;6.25;1.70;;;17.30;60.40;;;;;;10458860;28;20128;-48
2022/04/10 06:53:17;;;;;;;10.60;1.80;;;17.40;60.50;;;;;;10459755;28;20115;-55
2022/04/10 06:58:19;;;;;;;19.63;1.90;;;17.30;60.80;;;;;;10456323;28;20033;-55
2022/04/10 07:03:20;;;;;;;14.07;2.38;;;17.30;61.00;;;;;;10459376;28;20476;-55
2022/04/10 07:08:20;;;;;;;12.05;1.70;;;17.20;61.30;;;;;;10444406;28;20057;-51
2022/04/10 07:13:22;;;;;;;8.80;2.25;;;17.10;61.60;;;;;;10457211;28;20525;-57
2022/04/10 07:18:23;;;;;;;14.10;1.80;;;17.00;62.80;;;;;;10458363;28;20094;-54
2022/04/10 07:23:43;;;;;;;14.85;2.10;;;17.00;62.80;;;;;;10457650;28;20133;-55
2022/04/10 07:28:44;;;;;;;10.95;1.80;;;16.90;64.00;;;;;;10450585;28;20041;-48
2022/04/10 07:33:45;;;;;;;13.35;2.28;;;16.80;64.40;;;;;;10458848;28;20100;-49
2022/04/10 07:38:46;;;;;;;24.20;3.47;;;16.70;65.30;;;;;;10467021;28;20488;-48
2022/04/10 07:43:47;;;;;;;21.15;2.88;;;16.60;66.10;;;;;;10457930;28;20021;-47
2022/04/10 07:48:47;;;;;;;12.00;1.65;;;16.60;66.10;;;;;;10454520;28;20041;-53
2022/04/10 07:53:48;;;;;;;4.80;1.25;;;16.60;66.00;;;;;;10456395;28;20418;-47
2022/04/10 07:58:49;;;;;;;8.88;1.67;;;16.60;64.90;;;;;;10457138;28;20162;-47
2022/04/10 08:03:52;;;;;;;12.27;1.70;;;16.70;64.70;;;;;;10457081;28;20358;-47
2022/04/10 08:08:53;;;;;;;11.48;1.67;;;17.20;63.10;;;;;;10455488;28;20142;-51
2022/04/10 08:13:54;;;;;;;11.43;2.60;;;17.00;64.00;;;;;;10456633;28;20127;-48
2022/04/10 08:18:54;;;;;;;9.85;2.45;;;16.70;64.50;;;;;;10455090;28;20064;-48
2022/04/10 08:23:55;;;;;;;11.52;1.58;;;16.50;65.00;;;;;;10456251;28;20394;-50
2022/04/10 08:28:56;;;;;;;8.50;1.60;;;16.40;64.50;;;;;;10454747;28;20098;-48
2022/04/10 08:33:57;;;;;;;9.32;1.73;;;16.40;64.60;;;;;;10458335;28;20151;-48
2022/04/10 08:38:57;;;;;;;11.13;1.80;;;16.40;64.50;;;;;;10479415;28;20033;-48
2022/04/10 08:44:02;;;;;;;6.00;1.80;;;16.40;64.40;;;;;;10455943;28;20059;-47
2022/04/10 08:49:04;;;;;;;13.32;2.38;;;16.40;64.30;;;;;;10454817;28;20377;-49
2022/04/10 08:54:06;;;;;;;15.70;1.70;;;16.40;64.10;;;;;;10454625;28;20040;-49
2022/04/10 08:59:06;;;;;;;13.60;1.77;;;16.40;64.20;;;;;;10461360;28;20367;-51
2022/04/10 09:04:07;;;;;;;5.95;1.48;;;16.40;63.80;;;;;;10451848;28;20112;-50
2022/04/10 09:09:18;;;;;;;7.13;1.40;;;16.40;63.50;;;;;;10452468;28;20350;-49
2022/04/10 09:14:23;;;;;;;6.32;1.20;;;16.50;63.50;;;;;;10452413;28;20031;-48
2022/04/10 09:19:40;;;;;;;8.00;1.77;;;16.50;63.50;;;;;;10451877;28;20083;-52
2022/04/10 09:25:07;;;;;;;6.63;1.25;;;16.50;63.40;;;;;;10452066;28;20039;-51
2022/04/10 09:30:11;;;;;;;5.05;1.05;;;16.50;63.50;;;;;;10454381;28;20044;-48
2022/04/10 09:35:15;;;;;;;6.00;1.05;;;16.50;63.50;;;;;;10463142;28;20107;-49
2022/04/10 09:40:36;;;;;;;6.15;1.50;;;16.50;63.60;;;;;;10454498;28;20051;-50
2022/04/10 09:45:43;;;;;;;7.63;1.23;;;16.50;63.60;;;;;;10454580;28;20053;-48
2022/04/10 09:50:44;;;;;;;4.00;0.80;;;16.50;63.70;;;;;;10454075;28;20192;-50
2022/04/10 09:55:53;;;;;;;1.83;0.80;;;16.50;63.70;;;;;;10454119;28;20025;-50
2022/04/10 10:00:56;;;;;;;3.25;0.90;;;16.50;63.50;;;;;;10443473;28;20095;-48
2022/04/10 10:05:58;;;;;;;13.40;1.77;;;16.50;63.60;;;;;;10460215;28;20100;-49
2022/04/10 10:11:01;;;;;;;8.00;1.73;;;16.40;65.10;;;;;;10461623;28;20045;-49
2022/04/10 10:16:01;;;;;;;7.00;1.05;;;16.60;65.40;;;;;;10461753;28;20043;-47
2022/04/10 10:21:03;;;;;;;8.60;1.33;;;16.80;65.70;;;;;;10461582;28;20112;-47
2022/04/10 10:26:17;;;;;;;8.77;1.35;;;16.90;65.40;;;;;;10461783;28;20115;-48
2022/04/10 10:32:03;;;;;;;7.80;1.27;;;16.90;64.80;;;;;;10475981;28;20049;-49
2022/04/10 10:37:04;;;;;;;6.05;1.40;;;16.80;66.00;;;;;;10470645;28;20158;-48
2022/04/10 10:42:12;;;;;;;13.52;1.60;;;16.80;64.40;;;;;;10458892;28;20087;-51
2022/04/10 10:47:23;;;;;;;13.23;1.25;;;16.80;64.30;;;;;;10460330;28;20090;-53
2022/04/10 10:52:27;;;;;;;11.50;1.17;;;16.90;64.00;;;;;;10460435;28;20033;-49
2022/04/10 10:57:41;;;;;;;5.60;1.13;;;17.00;63.70;;;;;;10459803;28;20032;-50
2022/04/10 11:02:51;;;;;;;6.30;1.30;;;16.80;63.70;;;;;;10459579;28;20075;-50
2022/04/10 11:08:10;;;;;;;7.28;1.55;;;16.80;64.10;;;;;;10459505;28;20025;-51
2022/04/10 11:13:14;;;;;;;5.30;1.33;;;16.90;63.70;;;;;;10458498;28;20065;-51
2022/04/10 11:18:23;;;;;;;8.63;1.58;;;16.90;63.50;;;;;;10458544;28;20166;-50
2022/04/10 11:23:31;;;;;;;18.63;2.63;;;17.00;63.20;;;;;;10474418;28;20544;-49
2022/04/10 11:29:06;;;;;;;6.38;1.02;;;16.90;63.50;;;;;;10458243;28;20079;-48
2022/04/10 11:34:14;;;;;;;7.15;1.13;;;16.80;63.60;;;;;;10469454;28;20059;-50
2022/04/10 11:39:16;;;;;;;2.90;1.00;;;16.80;63.40;;;;;;10478675;28;20032;-50
2022/04/10 11:44:17;;;;;;;4.03;1.00;;;16.80;63.40;;;;;;10456472;28;20020;-52
2022/04/10 11:49:19;;;;;;;2.90;0.60;;;16.70;63.70;;;;;;10458327;28;20068;-50
2022/04/10 11:54:27;;;;;;;4.88;1.05;;;16.70;63.90;;;;;;10457660;28;20032;-51
2022/04/10 11:59:37;;;;;;;4.07;1.38;;;16.90;63.50;;;;;;10457706;28;20102;-50
2022/04/10 12:04:40;;;;;;;5.60;1.10;;;17.00;63.10;;;;;;10456622;28;20501;-50
2022/04/10 12:09:42;;;;;;;2.83;0.65;;;17.10;62.70;;;;;;10448821;28;20473;-52
2022/04/10 12:14:43;;;;;;;4.75;0.98;;;17.00;62.80;;;;;;10455340;28;20044;-50
2022/04/10 12:19:44;;;;;;;2.55;0.70;;;16.80;63.20;;;;;;10457175;28;20100;-52
2022/04/10 12:24:44;;;;;;;4.97;0.68;;;16.70;63.40;;;;;;10455447;28;20033;-52
2022/04/10 12:29:45;;;;;;;2.60;0.85;;;16.80;63.40;;;;;;10456386;28;20041;-54
2022/04/10 12:34:46;;;;;;;2.58;0.82;;;17.00;63.10;;;;;;10465830;28;20043;-51
2022/04/10 12:39:49;;;;;;;1.95;0.47;;;17.10;62.70;;;;;;10457486;28;20040;-53
2022/04/10 12:44:58;;;;;;;2.03;0.50;;;17.20;62.80;;;;;;10456189;28;20090;-49
2022/04/10 12:50:08;;;;;;;3.10;0.95;;;17.20;62.20;;;;;;10455904;28;20037;-53
2022/04/10 12:55:26;;;;;;;2.67;0.47;;;17.00;62.80;;;;;;10455583;28;20358;-50
2022/04/10 13:01:01;;;;;;;2.85;0.80;;;17.00;62.60;;;;;;10454071;28;20111;-50
2022/04/10 13:06:07;;;;;;;2.45;0.93;;;16.80;62.90;;;;;;10453151;28;20739;-49
2022/04/10 13:11:10;;;;;;;13.75;1.38;;;16.80;63.10;;;;;;10451591;28;20461;-47
2022/04/10 13:16:11;;;;;;;11.95;1.35;;;17.00;63.70;;;;;;10453857;28;20036;-48
2022/04/10 13:21:12;;;;;;;9.57;1.27;;;17.10;63.50;;;;;;10454511;28;20066;-47
2022/04/10 13:26:26;;;;;;;3.65;1.30;;;17.30;63.50;;;;;;10454029;28;20058;-49
2022/04/10 13:31:26;;;;;;;6.35;0.80;;;17.40;63.40;;;;;;10453488;28;20041;-48
2022/04/10 13:36:27;;;;;;;12.82;1.85;;;17.40;63.00;;;;;;10456092;28;20545;-48
2022/04/10 13:41:28;;;;;;;6.85;1.38;;;17.30;63.10;;;;;;10471224;28;20068;-50
2022/04/10 13:46:29;;;;;;;17.65;1.85;;;17.40;62.90;;;;;;10470654;28;20029;-48
2022/04/10 13:51:30;;;;;;;4.97;1.83;;;17.50;62.80;;;;;;10472229;28;20029;-48
2022/04/10 13:56:30;;;;;;;13.00;1.98;;;17.30;63.20;;;;;;10483104;28;20473;-49
2022/04/10 14:01:35;;;;;;;5.43;1.23;;;17.10;63.80;;;;;;10468414;28;20043;-50
2022/04/10 14:06:36;;;;;;;10.48;2.42;;;17.10;64.40;;;;;;10459835;28;20037;-49
2022/04/10 14:11:36;;;;;;;7.07;1.75;;;17.00;65.40;;;;;;10453097;28;20029;-48
2022/04/10 14:16:37;;;;;;;6.22;1.73;;;17.20;65.20;;;;;;10451900;28;20029;-47
2022/04/10 14:21:39;;;;;;;10.02;1.92;;;17.20;64.60;;;;;;10445626;28;20577;-46
2022/04/10 14:26:39;;;;;;;8.00;1.73;;;17.20;64.40;;;;;;10447200;28;20055;-45
2022/04/10 14:31:46;;;;;;;6.85;1.20;;;17.30;63.70;;;;;;10466864;28;20083;-45
2022/04/10 14:36:47;;;;;;;3.40;1.02;;;17.30;63.00;;;;;;10451868;28;20036;-45
2022/04/10 14:41:48;;;;;;;2.90;1.10;;;17.40;64.20;;;;;;10460839;28;20044;-48
2022/04/10 14:46:49;;;;;;;8.43;1.20;;;17.40;63.20;;;;;;10482362;28;20029;-45
2022/04/10 14:51:50;;;;;;;4.85;1.40;;;17.40;62.70;;;;;;10475737;28;20511;-45
2022/04/10 14:56:50;;;;;;;4.30;1.40;;;17.40;62.10;;;;;;10468396;28;20502;-51
2022/04/10 15:01:52;;;;;;;5.68;2.00;;;17.40;61.10;;;;;;10459082;28;20513;-49
2022/04/10 15:06:52;;;;;;;9.38;2.08;;;17.40;61.80;;;;;;10459400;28;20124;-47
2022/04/10 15:11:53;;;;;;;5.72;1.50;;;17.40;61.10;;;;;;10461792;28;20040;-49
2022/04/10 15:16:54;;;;;;;7.28;1.65;;;17.50;61.50;;;;;;10468442;28;20025;-50
2022/04/10 15:21:55;;;;;;;6.47;2.08;;;17.50;58.80;;;;;;10456888;28;20064;-52
2022/04/10 15:26:55;;;;;;;9.45;2.28;;;17.50;61.00;;;;;;10457938;28;20045;-51
2022/04/10 15:31:56;;;;;;;5.95;1.90;;;17.60;61.10;;;;;;10457923;28;20055;-51
2022/04/10 15:36:57;;;;;;;4.28;2.40;;;17.60;61.50;;;;;;10479135;28;20037;-47
2022/04/10 15:41:58;;;;;;;8.02;1.65;;;17.60;61.00;;;;;;10458119;28;20516;-50
2022/04/10 15:46:58;;;;;;;4.85;1.70;;;17.60;60.60;;;;;;10457419;28;20477;-47
2022/04/10 15:52:00;;;;;;;6.55;1.55;;;17.70;59.20;;;;;;10457241;28;20119;-47
2022/04/10 15:57:01;;;;;;;5.32;1.77;;;17.80;59.50;;;;;;10456224;28;20335;-49
2022/04/10 16:02:01;;;;;;;6.75;1.92;;;18.00;57.80;;;;;;10454005;28;20029;-48
2022/04/10 16:07:02;;;;;;;11.50;2.85;;;18.10;59.70;;;;;;10457046;28;20037;-45
2022/04/10 16:12:04;;;;;;;3.90;1.48;;;18.10;60.20;;;;;;10456556;28;20029;-46
2022/04/10 16:17:04;;;;;;;6.43;1.70;;;18.10;60.70;;;;;;10456566;28;20110;-47
2022/04/10 16:22:05;;;;;;;5.57;1.50;;;18.00;61.40;;;;;;10456517;28;20079;-47
2022/04/10 16:32:27;;;;;;;4.85;1.20;;;17.90;61.90;;;;;;10456196;28;20037;-49
2022/04/10 16:37:27;;;;;;;9.00;1.27;;;17.80;62.50;;;;;;10464921;28;20072;-51
2022/04/10 16:42:28;;;;;;;12.05;1.45;;;17.60;62.10;;;;;;10471039;28;20461;-52
2022/04/10 16:47:29;;;;;;;11.20;1.83;;;17.50;62.80;;;;;;10464903;28;20029;-54
2022/04/10 16:52:30;;;;;;;9.55;1.30;;;17.40;63.50;;;;;;10454954;28;20362;-51
2022/04/10 16:57:30;;;;;;;11.35;1.98;;;17.30;63.80;;;;;;10453908;28;20082;-53
2022/04/10 17:02:31;;;;;;;5.82;1.05;;;17.20;64.70;;;;;;10454880;28;20028;-50
2022/04/10 17:07:32;;;;;;;8.02;1.52;;;17.10;64.10;;;;;;10454573;28;20587;-49
2022/04/10 17:12:33;;;;;;;8.73;1.40;;;17.00;64.40;;;;;;10451763;28;20078;-50
2022/04/10 17:17:34;;;;;;;8.50;1.40;;;17.00;64.40;;;;;;10453232;28;20025;-50
2022/04/10 17:22:37;;;;;;;7.45;1.58;;;16.90;64.20;;;;;;10453562;28;20052;-48
2022/04/10 17:27:37;;;;;;;5.80;1.02;;;16.90;64.40;;;;;;10461134;28;20060;-48
2022/04/10 17:32:38;;;;;;;7.43;1.45;;;16.90;64.20;;;;;;10447046;28;20055;-49
2022/04/10 17:37:40;;;;;;;9.18;1.60;;;17.00;64.40;;;;;;10455249;28;20536;-53
2022/04/10 17:42:40;;;;;;;6.70;1.48;;;16.90;64.30;;;;;;10452925;28;20040;-48
2022/04/10 17:47:41;;;;;;;8.48;1.08;;;16.90;64.20;;;;;;10446390;28;20128;-52
2022/04/10 17:52:42;;;;;;;3.50;0.80;;;16.90;64.50;;;;;;10447590;28;20036;-50
2022/04/10 17:57:42;;;;;;;5.50;1.63;;;16.90;64.60;;;;;;10465775;28;20390;-49
2022/04/10 18:02:44;;;;;;;6.30;1.65;;;16.80;64.70;;;;;;10451647;28;20075;-50
2022/04/10 18:07:45;;;;;;;5.47;1.95;;;16.80;64.60;;;;;;10454416;28;20381;-49
2022/04/10 18:12:45;;;;;;;9.65;1.20;;;16.80;64.80;;;;;;10461835;28;20076;-45
2022/04/10 18:17:47;;;;;;;8.95;1.15;;;16.80;64.90;;;;;;10486639;28;20028;-48
2022/04/10 18:22:48;;;;;;;4.93;1.23;;;16.80;64.70;;;;;;10473549;28;20086;-51
2022/04/10 18:27:49;;;;;;;7.82;1.75;;;16.80;65.10;;;;;;10442516;28;20050;-53
2022/04/10 18:32:50;;;;;;;4.22;0.80;;;16.80;64.50;;;;;;10423868;28;20479;-53
2022/04/10 18:37:50;;;;;;;6.80;1.25;;;16.70;64.60;;;;;;10428044;28;20026;-53
2022/04/10 18:42:51;;;;;;;5.60;1.90;;;16.70;65.10;;;;;;10438036;28;20029;-51
2022/04/10 18:47:52;;;;;;;3.88;1.02;;;16.60;65.30;;;;;;10446474;28;20112;-51
2022/04/10 18:52:53;;;;;;;7.88;0.90;;;16.60;65.30;;;;;;10459523;28;20108;-54
2022/04/10 18:57:53;;;;;;;2.92;1.77;;;16.50;65.20;;;;;;10458489;28;20033;-50
2022/04/10 19:02:54;;;;;;;2.55;1.00;;;16.50;65.20;;;;;;10457181;28;20226;-51
2022/04/10 19:07:55;;;;;;;5.88;1.48;;;16.50;65.10;;;;;;10457608;28;20103;-53
2022/04/10 19:12:57;;;;;;;9.13;1.30;;;16.50;65.00;;;;;;10448170;28;20072;-51
2022/04/10 19:17:58;;;;;;;2.45;1.17;;;16.60;65.20;;;;;;10457607;28;20039;-51
2022/04/10 19:22:59;;;;;;;5.10;0.82;;;16.60;63.90;;;;;;10457569;28;20382;-54
2022/04/10 19:27:59;;;;;;;7.03;1.45;;;16.70;63.30;;;;;;10455262;28;20374;-52
2022/04/10 19:33:00;;;;;;;2.53;0.60;;;16.70;65.10;;;;;;10471239;28;20108;-55
2022/04/10 19:38:01;;;;;;;6.60;0.77;;;16.70;65.20;;;;;;10464103;28;20116;-53
2022/04/10 19:43:03;;;;;;;3.47;0.82;;;16.70;65.30;;;;;;10489311;28;20127;-52
2022/04/10 19:48:05;;;;;;;2.83;0.63;;;16.70;63.60;;;;;;10460452;28;20109;-49
2022/04/10 19:58:26;;;;;;;3.25;0.68;;;16.70;62.90;;;;;;10455080;28;20060;-51
2022/04/10 20:03:27;;;;;;;3.08;0.80;;;16.80;62.50;;;;;;10455285;28;20535;-50
2022/04/10 20:08:28;;;;;;;3.00;0.55;;;16.80;62.30;;;;;;10454693;28;20665;-50
2022/04/10 20:13:29;;;;;;;2.28;0.70;;;16.80;61.80;;;;;;10455092;28;20029;-49
2022/04/10 20:18:30;;;;;;;3.03;0.77;;;16.90;61.50;;;;;;10455959;28;20104;-49
2022/04/10 20:23:31;;;;;;;3.78;0.50;;;16.90;61.20;;;;;;10456822;28;20061;-51
2022/04/10 20:28:32;;;;;;;1.23;0.63;;;17.00;61.10;;;;;;10455126;28;20060;-50
2022/04/10 20:33:32;;;;;;;2.63;0.70;;;17.00;61.00;;;;;;10455378;28;20477;-50
2022/04/10 20:38:34;;;;;;;2.47;0.60;;;17.00;60.60;;;;;;10466116;28;20497;-50
2022/04/10 20:43:35;;;;;;;1.33;0.50;;;17.10;60.40;;;;;;10455074;28;20021;-53
2022/04/10 20:48:37;;;;;;;1.35;0.40;;;17.00;60.50;;;;;;10455102;28;20029;-49
2022/04/10 20:53:38;;;;;;;2.83;0.60;;;17.00;60.40;;;;;;10455828;28;20056;-52
2022/04/10 20:58:39;;;;;;;2.30;0.80;;;17.00;60.30;;;;;;10455606;28;20040;-49
2022/04/10 21:03:39;;;;;;;0.45;0.35;;;17.00;60.10;;;;;;10455333;28;20036;-51
2022/04/10 21:08:40;;;;;;;1.00;0.35;;;17.00;60.20;;;;;;10455176;28;20108;-51
2022/04/10 21:13:41;;;;;;;1.73;0.50;;;17.00;60.00;;;;;;10454845;28;20032;-48
2022/04/10 21:18:41;;;;;;;2.13;0.50;;;17.00;59.90;;;;;;10454746;28;20057;-52
2022/04/10 21:23:42;;;;;;;1.88;0.60;;;17.00;59.70;;;;;;10453261;28;20450;-51
2022/04/10 21:28:43;;;;;;;1.08;0.32;;;17.10;59.50;;;;;;10469487;28;20045;-50
2022/04/10 21:33:44;;;;;;;0.70;0.38;;;17.10;59.50;;;;;;10455155;28;20473;-49
2022/04/10 21:38:44;;;;;;;1.15;0.50;;;17.00;59.60;;;;;;10479562;28;20052;-49
2022/04/10 21:43:45;;;;;;;4.38;0.57;;;17.00;59.60;;;;;;10454323;28;20418;-50
2022/04/10 21:48:46;;;;;;;1.33;0.32;;;17.00;59.30;;;;;;10452887;28;20116;-50
2022/04/10 21:53:47;;;;;;;0.40;0.30;;;17.00;59.20;;;;;;10453700;28;20029;-52
2022/04/10 21:58:50;;;;;;;1.00;0.50;;;17.10;59.00;;;;;;10458542;28;20439;-51
2022/04/10 22:03:51;;;;;;;1.10;0.60;;;17.10;58.80;;;;;;10462437;28;20029;-48
2022/04/10 22:08:52;;;;;;;1.88;0.45;;;17.10;58.80;;;;;;10462220;28;20096;-48
2022/04/10 22:13:52;;;;;;;1.48;0.50;;;17.00;58.90;;;;;;10448486;28;20052;-51
2022/04/10 22:18:53;;;;;;;1.77;0.38;;;17.00;59.00;;;;;;10461785;28;20120;-49
2022/04/10 22:23:54;;;;;;;1.38;0.85;;;17.00;58.80;;;;;;10460140;28;20090;-49
2022/04/10 22:28:54;;;;;;;2.33;0.68;;;17.10;58.80;;;;;;10461395;28;20084;-51
2022/04/10 22:33:55;;;;;;;1.73;0.70;;;17.10;58.40;;;;;;10463566;28;20029;-49
2022/04/10 22:38:56;;;;;;;2.28;0.75;;;17.10;58.30;;;;;;10467656;28;20507;-49
2022/04/10 22:43:57;;;;;;;0.85;0.40;;;17.00;58.30;;;;;;10460957;28;20036;-50
2022/04/10 22:48:57;;;;;;;2.38;0.50;;;17.10;58.10;;;;;;10460494;28;20090;-48
2022/04/10 22:53:58;;;;;;;0.95;0.40;;;17.10;58.10;;;;;;10460339;28;20440;-49
2022/04/10 22:58:59;;;;;;;2.03;0.93;;;17.10;58.10;;;;;;10459482;28;20021;-50
2022/04/10 23:03:59;;;;;;;1.48;0.70;;;17.10;57.90;;;;;;10460141;28;20074;-49
2022/04/10 23:09:00;;;;;;;1.15;0.63;;;17.10;57.90;;;;;;10457276;28;20032;-51
2022/04/10 23:14:01;;;;;;;1.30;0.70;;;17.10;57.90;;;;;;10459908;28;20029;-47
2022/04/10 23:19:02;;;;;;;2.63;0.55;;;17.10;57.80;;;;;;10459651;28;20174;-48
2022/04/10 23:24:04;;;;;;;1.48;0.50;;;17.10;57.70;;;;;;10459322;28;20064;-50
2022/04/10 23:29:04;;;;;;;1.42;0.60;;;17.10;57.70;;;;;;10459033;28;20053;-49
2022/04/10 23:34:05;;;;;;;1.45;0.70;;;17.10;57.50;;;;;;10462659;28;20024;-51
2022/04/10 23:39:06;;;;;;;2.78;0.77;;;17.10;57.60;;;;;;10465516;28;20592;-51
2022/04/10 23:44:07;;;;;;;1.58;0.70;;;17.00;57.60;;;;;;10458687;28;20067;-49
2022/04/10 23:49:08;;;;;;;0.88;0.45;;;17.10;57.50;;;;;;10458282;28;20032;-48
2022/04/10 23:54:08;;;;;;;1.90;0.93;;;17.10;57.50;;;;;;10458045;28;20029;-51
2022/04/10 23:59:09;;;;;;;1.25;0.60;;;17.00;57.40;;;;;;10456797;28;20108;-52
